createdAt,value
2023-05-05T00:01:25.813Z,6.10
2023-05-05T00:03:52.613Z,5.72
2023-05-05T00:06:19.552Z,5.68
2023-05-05T00:08:46.540Z,5.20
2023-05-05T00:11:13.299Z,5.63
2023-05-05T00:13:40.115Z,5.07
2023-05-05T00:16:07.168Z,5.43
2023-05-05T00:18:34.080Z,5.75
2023-05-05T00:21:01.082Z,5.57
2023-05-05T00:23:27.910Z,4.78
2023-05-05T00:25:54.648Z,5.43
2023-05-05T00:28:21.334Z,5.40
2023-05-05T00:30:48.234Z,6.43
2023-05-05T00:33:15.136Z,5.47
2023-05-05T00:35:42.301Z,5.53
2023-05-05T00:38:09.516Z,6.03
2023-05-05T00:40:37.932Z,6.13
2023-05-05T00:43:05.320Z,6.75
2023-05-05T00:45:32.167Z,6.68
2023-05-05T00:48:01.036Z,6.00
2023-05-05T00:50:30.773Z,6.10
2023-05-05T00:53:06.093Z,7.85
2023-05-05T00:55:34.263Z,6.90
2023-05-05T00:58:02.767Z,5.80
2023-05-05T01:00:30.309Z,5.85
2023-05-05T01:02:57.365Z,5.73
2023-05-05T01:05:27.896Z,6.50
2023-05-05T01:08:13.717Z,6.28
2023-05-05T01:10:53.310Z,5.63
2023-05-05T01:13:55.361Z,6.03
2023-05-05T01:16:26.984Z,5.73
2023-05-05T01:19:01.013Z,5.30
2023-05-05T01:21:40.474Z,6.13
2023-05-05T01:24:37.675Z,5.75
2023-05-05T01:27:30.419Z,6.38
2023-05-05T01:30:34.434Z,5.83
2023-05-05T01:33:05.509Z,6.00
2023-05-05T01:35:43.790Z,5.75
2023-05-05T01:38:40.482Z,5.63
2023-05-05T01:41:25.484Z,6.45
2023-05-05T01:43:54.502Z,6.13
2023-05-05T01:46:24.393Z,6.78
2023-05-05T01:48:53.939Z,7.30
2023-05-05T01:51:23.245Z,7.25
2023-05-05T01:53:53.154Z,7.93
2023-05-05T01:56:22.889Z,6.60
2023-05-05T01:58:51.825Z,5.93
2023-05-05T02:01:21.839Z,7.68
2023-05-05T02:03:51.245Z,6.57
2023-05-05T02:06:20.830Z,7.65
2023-05-05T02:08:50.107Z,6.80
2023-05-05T02:11:17.852Z,7.18
2023-05-05T02:13:46.166Z,6.35
2023-05-05T02:16:13.981Z,6.00
2023-05-05T02:18:42.535Z,7.18
2023-05-05T02:21:09.686Z,6.93
2023-05-05T02:23:36.516Z,7.30
2023-05-05T02:26:11.555Z,7.18
2023-05-05T02:28:52.836Z,7.30
2023-05-05T02:31:22.851Z,6.63
2023-05-05T02:33:53.585Z,7.10
2023-05-05T02:36:22.711Z,7.43
2023-05-05T02:38:56.210Z,8.18
2023-05-05T02:41:27.062Z,7.50
2023-05-05T02:43:56.294Z,7.60
2023-05-05T02:46:23.002Z,7.07
2023-05-05T02:48:49.718Z,7.00
2023-05-05T02:51:16.471Z,6.57
2023-05-05T02:53:43.334Z,7.22
2023-05-05T02:56:35.009Z,7.07
2023-05-05T02:59:15.273Z,6.97
2023-05-05T03:02:00.733Z,6.47
2023-05-05T03:04:35.079Z,6.25
2023-05-05T03:07:11.066Z,6.53
2023-05-05T03:09:45.865Z,6.85
2023-05-05T03:12:18.357Z,6.73
2023-05-05T03:14:47.102Z,6.82
2023-05-05T03:17:17.464Z,7.75
2023-05-05T03:19:44.869Z,7.50
2023-05-05T03:22:11.908Z,9.30
2023-05-05T03:24:38.647Z,9.63
2023-05-05T03:27:05.416Z,10.32
2023-05-05T03:29:32.176Z,13.02
2023-05-05T03:31:59.385Z,15.13
2023-05-05T03:34:26.101Z,12.20
2023-05-05T03:36:52.864Z,9.83
2023-05-05T03:39:19.671Z,9.68
2023-05-05T03:41:46.477Z,10.20
2023-05-05T03:44:13.242Z,9.63
2023-05-05T03:46:40.010Z,9.00
2023-05-05T03:49:07.169Z,8.93
2023-05-05T03:51:33.954Z,9.10
2023-05-05T03:54:00.742Z,10.43
2023-05-05T03:56:27.484Z,7.85
2023-05-05T03:58:54.251Z,8.45
2023-05-05T04:01:21.529Z,8.53
2023-05-05T04:03:48.306Z,8.27
2023-05-05T04:06:15.343Z,7.45
2023-05-05T04:08:42.106Z,7.70
2023-05-05T04:11:08.835Z,8.00
2023-05-05T04:13:35.570Z,7.90
2023-05-05T04:16:02.369Z,7.32
2023-05-05T04:18:29.133Z,9.38
2023-05-05T04:20:55.922Z,7.93
2023-05-05T04:23:22.850Z,7.03
2023-05-05T04:25:49.627Z,7.07
2023-05-05T04:28:16.391Z,6.82
2023-05-05T04:30:43.603Z,7.25
2023-05-05T04:33:10.276Z,6.55
2023-05-05T04:35:37.112Z,6.28
2023-05-05T04:38:04.014Z,6.07
2023-05-05T04:40:30.753Z,5.88
2023-05-05T04:42:57.511Z,6.15
2023-05-05T04:45:24.233Z,5.82
2023-05-05T04:47:51.183Z,6.10
2023-05-05T04:50:18.044Z,6.00
2023-05-05T04:52:44.926Z,6.10
2023-05-05T04:55:11.704Z,5.50
2023-05-05T04:57:38.551Z,5.57
2023-05-05T05:00:06.705Z,5.57
2023-05-05T05:02:33.741Z,6.20
2023-05-05T05:05:00.518Z,5.88
2023-05-05T05:07:27.249Z,7.10
2023-05-05T05:09:53.977Z,6.30
2023-05-05T05:12:21.119Z,6.55
2023-05-05T05:14:47.903Z,6.10
2023-05-05T05:17:14.577Z,5.82
2023-05-05T05:19:41.318Z,6.95
2023-05-05T05:22:08.044Z,6.50
2023-05-05T05:24:35.017Z,6.68
2023-05-05T05:27:01.724Z,6.63
2023-05-05T05:29:28.443Z,5.78
2023-05-05T05:31:55.164Z,6.10
2023-05-05T05:34:21.917Z,6.25
2023-05-05T05:36:48.691Z,7.22
2023-05-05T05:39:15.381Z,7.00
2023-05-05T05:41:42.320Z,7.13
2023-05-05T05:44:09.125Z,7.68
2023-05-05T05:46:36.172Z,7.63
2023-05-05T05:49:02.965Z,7.43
2023-05-05T05:51:30.429Z,6.87
2023-05-05T05:53:58.772Z,6.70
2023-05-05T05:56:25.663Z,6.50
2023-05-05T05:58:52.735Z,5.82
2023-05-05T06:01:19.603Z,6.50
2023-05-05T06:03:46.754Z,6.37
2023-05-05T06:06:13.717Z,6.15
2023-05-05T06:08:40.509Z,6.50
2023-05-05T06:11:07.364Z,5.63
2023-05-05T06:13:34.262Z,6.20
2023-05-05T06:16:01.194Z,9.47
2023-05-05T06:18:28.060Z,6.00
2023-05-05T06:20:54.923Z,6.80
2023-05-05T06:23:22.140Z,7.20
2023-05-05T06:25:48.979Z,7.53
2023-05-05T06:28:16.359Z,7.77
2023-05-05T06:30:43.111Z,7.80
2023-05-05T06:33:09.897Z,6.75
2023-05-05T06:35:36.639Z,7.25
2023-05-05T06:38:03.336Z,7.65
2023-05-05T06:40:30.103Z,7.57
2023-05-05T06:42:57.087Z,7.55
2023-05-05T06:45:23.897Z,8.45
2023-05-05T06:47:50.857Z,7.70
2023-05-05T06:50:17.618Z,8.70
2023-05-05T06:52:44.394Z,7.73
2023-05-05T06:55:11.326Z,7.93
2023-05-05T06:57:38.009Z,7.88
2023-05-05T07:00:09.943Z,8.98
2023-05-05T07:02:37.164Z,9.95
2023-05-05T07:05:04.484Z,9.53
2023-05-05T07:07:32.484Z,8.20
2023-05-05T07:09:59.262Z,11.13
2023-05-05T07:12:25.950Z,11.10
2023-05-05T07:14:52.642Z,11.45
2023-05-05T07:17:19.423Z,11.50
2023-05-05T07:19:46.186Z,11.43
2023-05-05T07:22:12.846Z,13.07
2023-05-05T07:24:39.624Z,11.57
2023-05-05T07:27:07.386Z,12.93
2023-05-05T07:29:34.042Z,12.27
2023-05-05T07:32:00.741Z,10.90
2023-05-05T07:34:27.925Z,9.68
2023-05-05T07:36:56.400Z,12.23
2023-05-05T07:39:23.224Z,10.52
2023-05-05T07:41:50.047Z,9.97
2023-05-05T07:44:16.826Z,11.85
2023-05-05T07:46:43.627Z,8.10
2023-05-05T07:49:10.495Z,8.00
2023-05-05T07:51:37.641Z,7.65
2023-05-05T07:54:04.690Z,9.63
2023-05-05T07:56:31.626Z,8.20
2023-05-05T07:58:58.534Z,9.77
2023-05-05T08:01:25.226Z,9.43
2023-05-05T08:03:52.018Z,11.00
2023-05-05T08:06:25.287Z,9.23
2023-05-05T08:08:53.517Z,10.30
2023-05-05T08:11:21.779Z,11.45
2023-05-05T08:13:48.833Z,10.35
2023-05-05T08:16:15.908Z,11.45
2023-05-05T08:18:43.080Z,9.10
2023-05-05T08:21:10.529Z,10.23
2023-05-05T08:23:38.774Z,9.50
2023-05-05T08:26:06.789Z,9.63
2023-05-05T08:28:35.651Z,10.18
2023-05-05T08:31:06.772Z,9.93
2023-05-05T08:33:33.648Z,12.18
2023-05-05T08:36:01.921Z,13.02
2023-05-05T08:38:28.731Z,11.57
2023-05-05T08:40:55.489Z,12.57
2023-05-05T08:43:23.953Z,13.50
2023-05-05T08:45:54.172Z,11.02
2023-05-05T08:48:23.372Z,13.27
2023-05-05T08:50:57.272Z,13.90
2023-05-05T08:54:05.816Z,13.30
2023-05-05T08:56:38.153Z,13.40
2023-05-05T08:59:05.269Z,16.10
2023-05-05T09:01:33.676Z,15.27
2023-05-05T09:04:00.649Z,13.77
2023-05-05T09:06:27.535Z,13.93
2023-05-05T09:08:55.618Z,12.30
2023-05-05T09:11:23.301Z,8.50
2023-05-05T09:13:50.126Z,10.43
2023-05-05T09:16:16.946Z,9.93
2023-05-05T09:18:45.619Z,9.88
2023-05-05T09:21:26.062Z,7.63
2023-05-05T09:24:21.952Z,7.28
2023-05-05T09:26:48.719Z,8.25
2023-05-05T09:29:20.083Z,7.53
2023-05-05T09:32:08.554Z,7.45
2023-05-05T09:34:36.376Z,7.50
2023-05-05T09:37:03.826Z,7.28
2023-05-05T09:39:30.561Z,7.50
2023-05-05T09:41:58.741Z,7.72
2023-05-05T09:44:36.590Z,6.68
2023-05-05T09:47:07.252Z,6.30
2023-05-05T09:49:39.494Z,6.85
2023-05-05T09:52:16.605Z,6.93
2023-05-05T09:54:44.424Z,6.90
2023-05-05T09:57:33.917Z,6.90
2023-05-05T10:00:02.521Z,7.50
2023-05-05T10:02:34.806Z,6.90
2023-05-05T10:05:16.158Z,7.13
2023-05-05T10:07:46.061Z,6.85
2023-05-05T10:10:15.205Z,6.10
2023-05-05T10:12:42.822Z,5.67
2023-05-05T10:15:11.335Z,6.20
2023-05-05T10:20:19.325Z,6.30
2023-05-05T10:22:54.950Z,7.90
2023-05-05T10:25:30.635Z,6.63
2023-05-05T10:28:00.531Z,6.18
2023-05-05T10:30:31.884Z,6.38
2023-05-05T10:33:30.814Z,5.47
2023-05-05T10:36:01.645Z,5.85
2023-05-05T10:38:34.240Z,5.80
2023-05-05T10:41:02.258Z,5.22
2023-05-05T10:43:31.459Z,6.30
2023-05-05T10:45:59.365Z,5.57
2023-05-05T10:48:44.974Z,6.13
2023-05-05T10:51:54.995Z,5.80
2023-05-05T10:54:47.171Z,5.65
2023-05-05T10:57:16.698Z,5.20
2023-05-05T10:59:43.758Z,5.32
2023-05-05T11:02:25.265Z,5.20
2023-05-05T11:05:17.043Z,5.47
2023-05-05T11:07:50.050Z,5.22
2023-05-05T11:10:20.601Z,5.07
2023-05-05T11:13:00.295Z,5.50
2023-05-05T11:15:30.093Z,5.60
2023-05-05T11:17:58.474Z,5.07
2023-05-05T11:20:57.593Z,5.20
2023-05-05T11:23:25.424Z,6.40
2023-05-05T11:25:52.967Z,5.18
2023-05-05T11:28:25.524Z,5.03
2023-05-05T11:30:54.915Z,7.37
2023-05-05T11:33:38.752Z,5.40
2023-05-05T11:36:13.715Z,5.78
2023-05-05T11:38:52.481Z,5.25
2023-05-05T11:41:33.902Z,5.03
2023-05-05T11:44:18.018Z,6.27
2023-05-05T11:46:54.460Z,5.25
2023-05-05T11:49:32.224Z,5.65
2023-05-05T11:52:04.045Z,6.00
2023-05-05T11:54:31.593Z,5.72
2023-05-05T11:57:02.067Z,4.93
2023-05-05T11:59:28.784Z,5.10
2023-05-05T12:01:55.730Z,5.15
2023-05-05T12:04:22.880Z,5.85
2023-05-05T12:06:49.769Z,5.22
2023-05-05T12:09:17.964Z,5.17
2023-05-05T12:11:55.456Z,5.47
2023-05-05T12:14:23.659Z,5.53
2023-05-05T12:17:03.034Z,5.47
2023-05-05T12:19:33.217Z,5.03
2023-05-05T12:22:01.371Z,5.33
2023-05-05T12:24:28.369Z,5.53
2023-05-05T12:26:55.087Z,5.32
2023-05-05T12:29:29.677Z,5.05
2023-05-05T12:31:58.166Z,5.03
2023-05-05T12:34:25.052Z,4.57
2023-05-05T12:36:52.104Z,5.15
2023-05-05T12:39:18.954Z,6.38
2023-05-05T12:41:46.336Z,5.88
2023-05-05T12:44:13.145Z,5.43
2023-05-05T12:46:47.023Z,5.03
2023-05-05T12:49:14.050Z,5.30
2023-05-05T12:51:53.369Z,5.00
2023-05-05T12:54:20.172Z,5.20
2023-05-05T12:56:48.024Z,5.65
2023-05-05T12:59:23.607Z,5.53
2023-05-05T13:01:58.275Z,5.57
2023-05-05T13:04:27.191Z,5.40
2023-05-05T13:07:17.079Z,5.45
2023-05-05T13:09:43.904Z,5.22
2023-05-05T13:12:13.891Z,6.10
2023-05-05T13:14:41.856Z,5.57
2023-05-05T13:17:09.174Z,5.40
2023-05-05T13:19:41.829Z,5.28
2023-05-05T13:22:10.166Z,5.97
2023-05-05T13:24:49.859Z,5.20
2023-05-05T13:27:18.026Z,10.63
2023-05-05T13:29:44.744Z,10.13
2023-05-05T13:32:11.652Z,6.72
2023-05-05T13:34:39.345Z,7.05
2023-05-05T13:37:06.606Z,8.00
2023-05-05T13:39:33.496Z,7.00
2023-05-05T13:42:00.282Z,7.55
2023-05-05T13:44:27.285Z,7.05
2023-05-05T13:46:54.160Z,5.32
2023-05-05T13:49:21.027Z,7.80
2023-05-05T13:51:49.186Z,6.55
2023-05-05T13:54:15.981Z,7.35
2023-05-05T13:56:43.915Z,6.97
2023-05-05T13:59:10.722Z,8.02
2023-05-05T14:01:37.716Z,7.93
2023-05-05T14:04:05.937Z,7.65
2023-05-05T14:06:33.772Z,6.63
2023-05-05T14:09:00.656Z,5.72
2023-05-05T14:11:27.521Z,6.05
2023-05-05T14:13:54.275Z,5.13
2023-05-05T14:16:21.074Z,6.28
2023-05-05T14:18:47.839Z,5.10
2023-05-05T14:21:14.554Z,5.45
2023-05-05T14:23:41.240Z,5.88
2023-05-05T14:26:09.244Z,6.70
2023-05-05T14:28:36.150Z,9.43
2023-05-05T14:31:02.978Z,8.75
2023-05-05T14:33:29.667Z,10.82
2023-05-05T14:35:56.462Z,15.25
2023-05-05T14:38:23.224Z,10.37
2023-05-05T14:40:49.955Z,12.57
2023-05-05T14:43:16.781Z,5.28
2023-05-05T14:45:44.363Z,5.28
2023-05-05T14:48:11.493Z,10.88
2023-05-05T14:50:39.989Z,5.00
2023-05-05T14:53:06.766Z,5.10
2023-05-05T14:55:33.576Z,5.60
2023-05-05T14:58:00.317Z,5.35
2023-05-05T15:00:27.216Z,6.88
2023-05-05T15:02:54.103Z,6.37
2023-05-05T15:05:20.923Z,5.30
2023-05-05T15:07:47.736Z,5.10
2023-05-05T15:10:15.080Z,5.30
2023-05-05T15:12:42.916Z,5.63
2023-05-05T15:15:10.305Z,5.37
2023-05-05T15:17:39.027Z,5.93
2023-05-05T15:20:06.904Z,5.75
2023-05-05T15:22:33.974Z,6.25
2023-05-05T15:25:01.359Z,6.47
2023-05-05T15:27:28.369Z,5.93
2023-05-05T15:29:55.375Z,6.28
2023-05-05T15:32:22.251Z,6.88
2023-05-05T15:34:50.377Z,6.47
2023-05-05T15:37:17.448Z,7.25
2023-05-05T15:39:44.303Z,7.00
2023-05-05T15:42:11.127Z,7.35
2023-05-05T15:44:37.924Z,7.28
2023-05-05T15:47:05.412Z,6.88
2023-05-05T15:49:32.402Z,7.05
2023-05-05T15:51:59.129Z,6.33
2023-05-05T15:54:26.018Z,7.00
2023-05-05T15:56:52.844Z,6.47
2023-05-05T15:59:19.672Z,6.32
2023-05-05T16:01:47.020Z,7.43
2023-05-05T16:04:14.122Z,6.50
2023-05-05T16:06:41.119Z,6.35
2023-05-05T16:09:07.928Z,6.78
2023-05-05T16:11:35.006Z,6.50
2023-05-05T16:14:01.701Z,7.00
2023-05-05T16:16:28.582Z,6.47
2023-05-05T16:18:55.384Z,6.80
2023-05-05T16:21:22.143Z,6.38
2023-05-05T16:23:48.890Z,6.82
2023-05-05T16:26:15.702Z,6.20
2023-05-05T16:28:42.439Z,7.30
2023-05-05T16:31:11.103Z,7.70
2023-05-05T16:33:43.557Z,7.72
2023-05-05T16:36:12.165Z,7.65
2023-05-05T16:38:39.841Z,6.78
2023-05-05T16:41:09.355Z,7.80
2023-05-05T16:43:37.359Z,7.10
2023-05-05T16:46:04.579Z,7.38
2023-05-05T16:48:31.361Z,6.88
2023-05-05T16:50:58.425Z,7.03
2023-05-05T16:53:26.068Z,7.27
2023-05-05T16:55:53.796Z,7.22
2023-05-05T16:58:22.580Z,6.90
2023-05-05T17:00:50.011Z,7.40
2023-05-05T17:03:17.787Z,6.10
2023-05-05T17:05:47.741Z,6.30
2023-05-05T17:08:16.032Z,6.32
2023-05-05T17:10:44.188Z,5.80
2023-05-05T17:13:12.393Z,7.05
2023-05-05T17:15:39.567Z,6.57
2023-05-05T17:18:07.403Z,6.83
2023-05-05T17:20:34.674Z,5.65
2023-05-05T17:23:05.018Z,5.78
2023-05-05T17:25:32.222Z,5.75
2023-05-05T17:27:58.948Z,5.72
2023-05-05T17:30:25.910Z,5.77
2023-05-05T17:32:52.824Z,6.03
2023-05-05T17:35:19.955Z,5.93
2023-05-05T17:37:46.896Z,5.90
2023-05-05T17:40:13.753Z,5.57
2023-05-05T17:42:40.687Z,5.67
2023-05-05T17:45:08.726Z,5.72
2023-05-05T17:47:36.251Z,5.60
2023-05-05T17:50:03.397Z,5.10
2023-05-05T17:52:30.128Z,6.35
2023-05-05T17:54:56.976Z,6.33
2023-05-05T17:57:23.709Z,6.53
2023-05-05T17:59:51.915Z,6.30
2023-05-05T18:02:19.146Z,6.20
2023-05-05T18:04:46.579Z,6.57
2023-05-05T18:07:14.800Z,7.10
2023-05-05T18:09:41.874Z,6.07
2023-05-05T18:12:08.714Z,6.63
2023-05-05T18:14:35.828Z,6.78
2023-05-05T18:17:02.786Z,6.68
2023-05-05T18:19:29.526Z,6.90
2023-05-05T18:21:57.496Z,6.63
2023-05-05T18:24:24.270Z,8.07
2023-05-05T18:26:52.377Z,6.60
2023-05-05T18:29:21.539Z,7.57
2023-05-05T18:31:49.592Z,7.50
2023-05-05T18:34:16.997Z,8.10
2023-05-05T18:36:43.836Z,7.93
2023-05-05T18:39:10.538Z,8.27
2023-05-05T18:41:37.440Z,9.15
2023-05-05T18:44:04.152Z,8.33
2023-05-05T18:46:30.926Z,9.15
2023-05-05T18:48:57.656Z,8.68
2023-05-05T18:51:24.373Z,7.68
2023-05-05T18:53:52.481Z,7.10
2023-05-05T18:56:19.193Z,6.90
2023-05-05T18:58:45.897Z,6.47
2023-05-05T19:01:12.694Z,6.78
2023-05-05T19:03:39.517Z,7.43
2023-05-05T19:06:07.164Z,7.22
2023-05-05T19:08:33.916Z,7.17
2023-05-05T19:11:00.730Z,8.65
2023-05-05T19:13:27.472Z,9.27
2023-05-05T19:15:57.229Z,7.45
2023-05-05T19:18:24.720Z,6.40
2023-05-05T19:20:51.782Z,6.10
2023-05-05T19:23:18.595Z,6.85
2023-05-05T19:25:45.309Z,6.80
2023-05-05T19:28:12.134Z,7.35
2023-05-05T19:30:38.876Z,7.50
2023-05-05T19:33:05.712Z,8.50
2023-05-05T19:35:32.541Z,8.18
2023-05-05T19:37:59.828Z,7.35
2023-05-05T19:40:26.548Z,7.95
2023-05-05T19:42:53.360Z,7.38
2023-05-05T19:45:20.268Z,6.93
2023-05-05T19:47:47.087Z,7.00
2023-05-05T19:50:15.514Z,6.20
2023-05-05T19:52:42.261Z,6.10
2023-05-05T19:55:13.339Z,6.78
2023-05-05T19:57:40.654Z,5.97
2023-05-05T20:00:10.546Z,6.80
2023-05-05T20:02:37.749Z,5.95
2023-05-05T20:05:04.958Z,6.15
2023-05-05T20:07:31.738Z,5.68
2023-05-05T20:09:58.734Z,5.70
2023-05-05T20:12:25.813Z,6.55
2023-05-05T20:14:52.583Z,6.10
2023-05-05T20:17:20.374Z,5.28
2023-05-05T20:19:47.899Z,5.90
2023-05-05T20:22:14.780Z,5.70
2023-05-05T20:24:41.553Z,5.07
2023-05-05T20:27:08.400Z,5.03
2023-05-05T20:29:35.221Z,4.68
2023-05-05T20:32:01.995Z,5.75
2023-05-05T20:34:28.882Z,5.30
2023-05-05T20:36:55.681Z,4.55
2023-05-05T20:39:22.382Z,4.97
2023-05-05T20:41:49.152Z,5.05
2023-05-05T20:44:16.042Z,4.72
2023-05-05T20:46:42.793Z,4.30
2023-05-05T20:49:09.507Z,4.53
2023-05-05T20:51:36.319Z,6.18
2023-05-05T20:54:03.270Z,6.72
2023-05-05T20:56:29.976Z,6.68
2023-05-05T20:58:56.942Z,7.30
2023-05-05T21:01:23.819Z,6.18
2023-05-05T21:03:50.747Z,5.15
2023-05-05T21:06:19.567Z,6.55
2023-05-05T21:08:47.948Z,6.63
2023-05-05T21:11:14.652Z,5.97
2023-05-05T21:13:41.361Z,5.45
2023-05-05T21:16:08.121Z,6.63
2023-05-05T21:18:34.860Z,3.88
2023-05-05T21:21:01.636Z,3.80
2023-05-05T21:23:28.468Z,2.87
2023-05-05T21:25:55.537Z,3.30
2023-05-05T21:28:22.345Z,4.22
2023-05-05T21:31:10.190Z,6.63
2023-05-05T21:33:38.161Z,7.20
2023-05-05T21:36:06.091Z,7.37
2023-05-05T21:38:32.862Z,7.15
2023-05-05T21:40:59.684Z,6.63
2023-05-05T21:43:28.656Z,5.32
2023-05-05T21:46:00.042Z,5.43
2023-05-05T21:48:27.116Z,3.20
2023-05-05T21:50:54.394Z,3.97
2023-05-05T21:53:21.588Z,6.30
2023-05-05T21:55:48.371Z,4.50
2023-05-05T21:58:15.698Z,6.85
2023-05-05T22:00:43.118Z,6.37
2023-05-05T22:03:09.933Z,4.40
2023-05-05T22:05:36.874Z,4.07
2023-05-05T22:08:03.722Z,4.85
2023-05-05T22:10:30.428Z,4.05
2023-05-05T22:12:58.108Z,3.33
2023-05-05T22:15:30.011Z,3.25
2023-05-05T22:17:59.705Z,3.60
2023-05-05T22:20:26.539Z,3.83
2023-05-05T22:22:53.249Z,4.07
2023-05-05T22:25:20.020Z,4.10
2023-05-05T22:27:46.924Z,3.83
2023-05-05T22:30:13.930Z,4.15
2023-05-05T22:32:43.455Z,4.13
2023-05-05T22:35:10.513Z,3.80
2023-05-05T22:37:37.464Z,3.67
2023-05-05T22:40:04.788Z,3.78
2023-05-05T22:42:31.506Z,4.05
2023-05-05T22:44:58.263Z,4.07
2023-05-05T22:47:25.086Z,3.67
2023-05-05T22:49:51.958Z,3.83
2023-05-05T22:52:19.006Z,3.67
2023-05-05T22:54:45.676Z,3.70
2023-05-05T22:57:12.426Z,4.10
2023-05-05T22:59:39.176Z,4.20
2023-05-05T23:02:05.891Z,3.83
2023-05-05T23:04:32.672Z,3.92
2023-05-05T23:06:59.350Z,4.47
2023-05-05T23:09:26.030Z,5.95
2023-05-05T23:11:52.757Z,6.43
2023-05-05T23:14:19.595Z,5.43
2023-05-05T23:16:46.747Z,6.13
2023-05-05T23:19:13.903Z,6.05
2023-05-05T23:21:52.038Z,6.75
2023-05-05T23:24:19.914Z,5.15
2023-05-05T23:26:46.669Z,4.70
2023-05-05T23:29:13.349Z,5.15
2023-05-05T23:31:40.054Z,4.93
2023-05-05T23:34:06.775Z,4.85
2023-05-05T23:36:33.574Z,4.57
2023-05-05T23:39:00.429Z,4.23
2023-05-05T23:41:27.231Z,3.70
2023-05-05T23:43:54.000Z,4.22
2023-05-05T23:46:20.858Z,4.63
2023-05-05T23:48:47.563Z,4.25
2023-05-05T23:51:14.268Z,3.90
2023-05-05T23:53:41.284Z,4.43
2023-05-05T23:56:08.623Z,4.60
2023-05-05T23:58:35.868Z,4.25
